Time;durP1;ratioP1;P1;durP2;ratioP2;P2;SDS_P1;SDS_P2;PMS_P1;PMS_P2;Temp;Humidity;BMP_temperature;BMP_pressure;BME280_temperature;BME280_humidity;BME280_pressure;Samples;Min_cycle;Max_cycle;Signal;HPM_P1;HPM_P2
2022/05/26 00:01:04;;;;;;;1.53;1.43;;;14.10;99.90;;;;;;4973364;28;20336;-65
2022/05/26 00:03:32;;;;;;;1.93;1.83;;;14.10;99.90;;;;;;4973314;28;20419;-64
2022/05/26 00:05:58;;;;;;;1.43;1.33;;;14.20;99.90;;;;;;4973389;28;20423;-65
2022/05/26 00:08:24;;;;;;;2.30;1.93;;;14.20;99.90;;;;;;4973064;28;20426;-64
2022/05/26 00:10:49;;;;;;;2.10;1.63;;;14.20;99.90;;;;;;4973083;28;20467;-64
2022/05/26 00:13:15;;;;;;;1.70;1.60;;;14.30;99.90;;;;;;4973163;28;20749;-65
2022/05/26 00:15:41;;;;;;;3.13;1.50;;;14.30;99.90;;;;;;4973104;28;20160;-64
2022/05/26 00:18:06;;;;;;;1.90;1.33;;;14.30;99.90;;;;;;4971789;28;20422;-64
2022/05/26 00:20:33;;;;;;;3.00;1.60;;;14.40;99.90;;;;;;4972833;28;20286;-64
2022/05/26 00:22:58;;;;;;;1.93;1.60;;;14.40;99.90;;;;;;4976807;28;20180;-64
2022/05/26 00:25:24;;;;;;;1.57;1.23;;;14.40;99.90;;;;;;4977117;28;20426;-64
2022/05/26 00:27:49;;;;;;;2.90;1.60;;;14.50;99.90;;;;;;4977114;28;20860;-64
2022/05/26 00:30:15;;;;;;;1.80;1.63;;;14.50;99.90;;;;;;4977031;28;20234;-64
2022/05/26 00:32:40;;;;;;;3.33;1.20;;;14.60;99.90;;;;;;4976918;28;20172;-64
2022/05/26 00:35:06;;;;;;;4.90;1.70;;;14.60;99.90;;;;;;4977035;28;20220;-64
2022/05/26 00:37:32;;;;;;;1.83;1.03;;;14.60;99.90;;;;;;4976964;28;20247;-64
2022/05/26 00:39:58;;;;;;;1.83;1.73;;;14.60;99.90;;;;;;4976656;28;20443;-64
2022/05/26 00:42:23;;;;;;;5.10;1.30;;;14.70;99.90;;;;;;4976889;28;20175;-64
2022/05/26 00:44:50;;;;;;;3.37;1.53;;;14.70;99.90;;;;;;4976709;28;20172;-64
2022/05/26 00:47:19;;;;;;;1.63;1.40;;;14.80;99.90;;;;;;4976773;28;20201;-64
2022/05/26 00:49:44;;;;;;;1.97;1.60;;;14.80;99.90;;;;;;4976328;28;20520;-64
2022/05/26 00:52:17;;;;;;;1.47;1.37;;;14.90;99.90;;;;;;4976835;28;20932;-64
2022/05/26 00:54:45;;;;;;;2.13;1.60;;;14.80;99.90;;;;;;4976651;28;20226;-64
2022/05/26 00:57:30;;;;;;;1.60;1.50;;;14.80;99.90;;;;;;4976552;28;20427;-64
2022/05/26 01:00:10;;;;;;;2.20;1.30;;;14.70;99.90;;;;;;4976149;28;20439;-64
2022/05/26 01:02:41;;;;;;;1.43;1.33;;;14.70;99.90;;;;;;4976594;28;20418;-64
2022/05/26 01:05:21;;;;;;;1.87;1.77;;;14.70;99.90;;;;;;4976531;28;20427;-64
2022/05/26 01:07:47;;;;;;;1.30;1.20;;;14.60;99.90;;;;;;4976415;28;20422;-64
2022/05/26 01:10:15;;;;;;;1.27;1.00;;;14.50;99.90;;;;;;4975769;28;20475;-64
2022/05/26 01:12:41;;;;;;;2.00;1.70;;;14.50;99.90;;;;;;4976517;28;20411;-64
2022/05/26 01:15:11;;;;;;;1.53;1.43;;;14.40;99.90;;;;;;4976576;28;20434;-64
2022/05/26 01:18:17;;;;;;;1.50;1.40;;;14.40;99.90;;;;;;4976333;28;20199;-64
2022/05/26 01:21:00;;;;;;;1.83;1.40;;;14.40;99.90;;;;;;4967443;28;20546;-64
2022/05/26 01:23:34;;;;;;;1.13;1.13;;;14.40;99.90;;;;;;4976132;28;20418;-64
2022/05/26 01:26:30;;;;;;;3.43;1.67;;;14.40;99.90;;;;;;4976009;28;20912;-64
2022/05/26 01:29:17;;;;;;;1.40;1.30;;;14.40;99.90;;;;;;4975689;28;20499;-64
2022/05/26 01:31:54;;;;;;;2.27;1.43;;;14.30;99.90;;;;;;4975915;28;20494;-64
2022/05/26 01:34:43;;;;;;;2.60;1.90;;;14.30;99.90;;;;;;4975905;28;20431;-64
2022/05/26 01:37:23;;;;;;;1.53;1.43;;;14.20;99.90;;;;;;4975745;28;20448;-64
2022/05/26 01:40:21;;;;;;;1.67;1.40;;;14.20;99.90;;;;;;4975534;28;20994;-64
2022/05/26 01:43:11;;;;;;;1.40;1.30;;;14.10;99.90;;;;;;4975861;28;20415;-64
2022/05/26 01:46:08;;;;;;;3.33;1.63;;;14.10;99.90;;;;;;4975674;28;20408;-64
2022/05/26 01:48:40;;;;;;;3.43;1.40;;;14.00;99.90;;;;;;4975503;28;20478;-64
2022/05/26 01:51:30;;;;;;;1.50;1.40;;;14.00;99.90;;;;;;4975503;28;20554;-64
2022/05/26 01:54:21;;;;;;;1.50;1.40;;;14.00;99.90;;;;;;4975535;28;20504;-64
2022/05/26 01:56:49;;;;;;;1.60;1.50;;;14.00;99.90;;;;;;4975522;28;20416;-64
2022/05/26 01:59:35;;;;;;;2.10;1.37;;;13.90;99.90;;;;;;4975161;28;20415;-63
2022/05/26 02:02:15;;;;;;;2.30;1.70;;;13.90;99.90;;;;;;4975474;28;20503;-64
2022/05/26 02:04:46;;;;;;;3.53;1.40;;;13.90;99.90;;;;;;4975396;28;20419;-64
2022/05/26 02:07:21;;;;;;;5.17;1.90;;;13.90;99.90;;;;;;4975545;28;20415;-64
2022/05/26 02:09:48;;;;;;;1.57;1.47;;;13.90;99.90;;;;;;4974771;28;20490;-64
2022/05/26 02:12:39;;;;;;;1.60;1.50;;;13.90;99.90;;;;;;4975307;28;20427;-64
2022/05/26 02:15:15;;;;;;;1.53;1.33;;;13.80;99.90;;;;;;4975208;28;20887;-64
2022/05/26 02:17:51;;;;;;;3.33;1.70;;;13.80;99.90;;;;;;4975189;28;20436;-64
2022/05/26 02:20:28;;;;;;;1.83;1.50;;;13.80;99.90;;;;;;4974871;28;20435;-64
2022/05/26 02:23:27;;;;;;;1.63;1.27;;;13.70;99.90;;;;;;4975088;28;20418;-64
2022/05/26 02:25:54;;;;;;;1.17;1.07;;;13.70;99.90;;;;;;4975043;28;20422;-64
2022/05/26 02:28:19;;;;;;;1.50;1.37;;;13.70;99.90;;;;;;4973433;28;20415;-64
2022/05/26 02:30:46;;;;;;;1.27;1.20;;;13.60;99.90;;;;;;4974695;28;21044;-64
2022/05/26 02:33:14;;;;;;;1.50;1.40;;;13.60;99.90;;;;;;4974897;28;20179;-64
2022/05/26 02:35:43;;;;;;;1.67;1.17;;;13.60;99.90;;;;;;4974647;28;20478;-64
2022/05/26 02:38:21;;;;;;;3.13;1.60;;;13.50;99.90;;;;;;4974741;28;20777;-64
2022/05/26 02:40:48;;;;;;;2.00;1.63;;;13.50;99.90;;;;;;4974646;28;20439;-64
2022/05/26 02:43:17;;;;;;;3.80;1.53;;;13.50;99.90;;;;;;4974679;28;20420;-64
2022/05/26 02:46:07;;;;;;;1.60;1.50;;;13.50;99.90;;;;;;4974028;28;20427;-64
2022/05/26 02:48:51;;;;;;;1.83;1.73;;;13.50;99.90;;;;;;4974418;28;20424;-64
2022/05/26 02:51:41;;;;;;;2.40;0.90;;;13.50;99.90;;;;;;4974431;28;20459;-64
2022/05/26 02:54:37;;;;;;;4.70;1.30;;;13.50;99.90;;;;;;4974441;28;20407;-64
2022/05/26 02:57:28;;;;;;;1.33;1.20;;;13.50;99.90;;;;;;4974335;28;20415;-64
2022/05/26 03:00:17;;;;;;;3.83;1.50;;;13.50;99.90;;;;;;4974547;28;20443;-64
2022/05/26 03:02:54;;;;;;;2.60;1.10;;;13.50;99.90;;;;;;4973798;28;20445;-64
2022/05/26 03:05:28;;;;;;;1.53;1.20;;;13.60;99.90;;;;;;4974432;28;20863;-64
2022/05/26 03:07:58;;;;;;;1.33;1.23;;;13.60;99.90;;;;;;4974350;28;20415;-64
2022/05/26 03:10:26;;;;;;;1.40;1.30;;;13.60;99.90;;;;;;4973624;28;20538;-64
2022/05/26 03:12:58;;;;;;;2.33;1.70;;;13.60;99.90;;;;;;4974190;28;20888;-64
2022/05/26 03:15:23;;;;;;;6.20;2.07;;;13.50;99.90;;;;;;4974154;28;20412;-64
2022/05/26 03:17:49;;;;;;;2.23;1.30;;;13.50;99.90;;;;;;4974179;28;20416;-64
2022/05/26 03:20:14;;;;;;;1.60;1.50;;;13.50;99.90;;;;;;4973690;28;20191;-64
2022/05/26 03:22:40;;;;;;;2.13;1.73;;;13.50;99.90;;;;;;4973982;28;20180;-64
2022/05/26 03:25:07;;;;;;;1.70;1.60;;;13.50;99.90;;;;;;4973826;28;20208;-64
2022/05/26 03:27:33;;;;;;;13.97;8.57;;;13.50;99.90;;;;;;4973755;28;20173;-64
2022/05/26 03:29:58;;;;;;;4.10;3.70;;;13.50;99.90;;;;;;4973314;28;20466;-63
2022/05/26 03:32:24;;;;;;;2.83;1.57;;;13.50;99.90;;;;;;4973819;28;20422;-63
2022/05/26 03:43:04;;;;;;;3.83;1.37;;;13.50;99.90;;;;;;4973738;28;20932;-63
2022/05/26 03:45:33;;;;;;;1.30;1.20;;;13.50;99.90;;;;;;4973741;28;20431;-64
2022/05/26 03:47:58;;;;;;;2.20;1.57;;;13.50;99.90;;;;;;4973512;28;20419;-63
2022/05/26 03:50:24;;;;;;;2.10;1.40;;;13.50;99.90;;;;;;4973136;28;20497;-63
2022/05/26 03:52:51;;;;;;;2.50;1.50;;;13.50;99.90;;;;;;4973489;28;20179;-64
2022/05/26 03:55:18;;;;;;;2.87;1.50;;;13.50;99.90;;;;;;4973203;28;20653;-64
2022/05/26 03:57:43;;;;;;;1.30;1.20;;;13.50;99.90;;;;;;4972908;28;20420;-64
2022/05/26 04:00:10;;;;;;;2.57;1.90;;;13.50;99.90;;;;;;4973129;28;20448;-64
2022/05/26 04:02:36;;;;;;;1.70;1.60;;;13.50;99.90;;;;;;4973302;28;20176;-64
2022/05/26 04:05:01;;;;;;;2.73;1.50;;;13.50;99.90;;;;;;4973254;28;20420;-64
2022/05/26 04:07:27;;;;;;;3.57;1.30;;;13.50;99.90;;;;;;4973581;28;20187;-64
2022/05/26 04:09:52;;;;;;;1.93;1.40;;;13.60;99.90;;;;;;4972768;28;20308;-64
2022/05/26 04:12:18;;;;;;;1.90;1.70;;;13.60;99.90;;;;;;4973301;28;20681;-64
2022/05/26 04:14:44;;;;;;;2.83;1.23;;;13.70;99.90;;;;;;4973269;28;20176;-64
2022/05/26 04:17:09;;;;;;;1.63;1.20;;;13.80;99.90;;;;;;4973255;28;20192;-64
2022/05/26 04:19:41;;;;;;;1.57;1.27;;;13.90;99.90;;;;;;4972875;28;20494;-64
2022/05/26 04:22:17;;;;;;;2.50;1.27;;;14.10;99.90;;;;;;4973799;28;20195;-64
2022/05/26 04:24:45;;;;;;;1.90;1.33;;;14.30;99.90;;;;;;4973358;28;20450;-64
2022/05/26 04:27:10;;;;;;;1.97;1.13;;;14.40;99.90;;;;;;4973178;28;20420;-64
2022/05/26 04:29:36;;;;;;;1.80;1.30;;;14.40;99.90;;;;;;4972685;28;20494;-64
2022/05/26 04:32:03;;;;;;;1.57;1.47;;;14.40;99.90;;;;;;4973071;28;20255;-64
2022/05/26 04:34:29;;;;;;;2.00;1.90;;;14.50;99.90;;;;;;4972983;28;20231;-64
2022/05/26 04:36:54;;;;;;;2.67;1.53;;;14.50;99.90;;;;;;4973102;28;20416;-64
2022/05/26 04:39:20;;;;;;;1.43;1.33;;;14.60;99.90;;;;;;4972668;28;20180;-64
2022/05/26 04:41:46;;;;;;;1.47;1.30;;;14.60;99.90;;;;;;4972989;28;20196;-64
2022/05/26 04:44:14;;;;;;;1.93;1.83;;;14.60;99.90;;;;;;4973040;28;20184;-64
2022/05/26 04:46:39;;;;;;;2.07;1.77;;;14.60;99.90;;;;;;4972908;28;20431;-64
2022/05/26 04:49:06;;;;;;;1.90;1.20;;;14.70;99.90;;;;;;4972587;28;20420;-64
2022/05/26 04:51:31;;;;;;;3.47;1.67;;;14.80;99.90;;;;;;4972784;28;20208;-64
2022/05/26 04:53:57;;;;;;;1.23;1.13;;;14.80;99.90;;;;;;4972881;28;20431;-64
2022/05/26 04:56:23;;;;;;;1.30;1.20;;;14.90;99.90;;;;;;4971695;28;20275;-64
2022/05/26 04:58:51;;;;;;;1.23;1.13;;;15.10;99.90;;;;;;4972702;28;20172;-64
2022/05/26 05:01:19;;;;;;;1.50;1.27;;;15.20;99.90;;;;;;4972736;28;20286;-64
2022/05/26 05:03:45;;;;;;;1.37;1.27;;;15.30;99.90;;;;;;4972885;28;20415;-64
2022/05/26 05:06:11;;;;;;;1.27;1.20;;;15.30;99.90;;;;;;4972985;28;20434;-64
2022/05/26 05:08:37;;;;;;;1.63;1.53;;;15.40;99.90;;;;;;4975019;28;20423;-64
2022/05/26 05:11:03;;;;;;;1.90;1.53;;;15.50;99.90;;;;;;4976062;28;20239;-64
2022/05/26 05:13:28;;;;;;;3.20;1.50;;;15.70;99.90;;;;;;4976366;28;20184;-64
2022/05/26 05:16:00;;;;;;;2.10;1.33;;;15.70;99.90;;;;;;4976232;28;20416;-64
2022/05/26 05:18:26;;;;;;;1.40;1.30;;;15.80;99.90;;;;;;4976192;28;20279;-64
2022/05/26 05:20:53;;;;;;;1.57;1.47;;;15.80;99.90;;;;;;4976072;28;20530;-64
2022/05/26 05:23:19;;;;;;;2.40;1.47;;;15.90;99.90;;;;;;4976440;28;20186;-64
2022/05/26 05:25:49;;;;;;;2.30;1.40;;;16.00;99.90;;;;;;4976115;28;20435;-64
2022/05/26 05:28:21;;;;;;;2.27;1.37;;;16.10;99.90;;;;;;4975858;28;20187;-64
2022/05/26 05:30:52;;;;;;;2.10;1.10;;;16.20;99.90;;;;;;4975925;28;20984;-64
2022/05/26 05:33:25;;;;;;;2.30;1.60;;;16.20;99.90;;;;;;4976009;28;20832;-64
2022/05/26 05:35:55;;;;;;;1.97;1.17;;;16.30;99.90;;;;;;4975914;28;20498;-64
2022/05/26 05:38:21;;;;;;;1.57;1.47;;;16.40;99.90;;;;;;4975694;28;20415;-64
2022/05/26 05:40:47;;;;;;;2.83;1.10;;;16.60;99.90;;;;;;4975717;28;20439;-64
2022/05/26 05:43:13;;;;;;;2.83;1.47;;;16.70;99.90;;;;;;4975782;28;20219;-64
2022/05/26 05:45:39;;;;;;;4.13;1.47;;;16.80;99.90;;;;;;4975751;28;20419;-64
2022/05/26 05:48:05;;;;;;;1.57;1.47;;;16.90;99.90;;;;;;4975723;28;20199;-64
2022/05/26 05:50:31;;;;;;;1.73;1.63;;;17.00;99.90;;;;;;4975349;28;20495;-64
2022/05/26 05:52:56;;;;;;;1.80;1.30;;;17.10;99.90;;;;;;4975667;28;20454;-64
2022/05/26 05:55:23;;;;;;;1.77;1.30;;;17.20;99.90;;;;;;4964993;28;20177;-66
2022/05/26 05:57:48;;;;;;;2.53;1.50;;;17.30;99.90;;;;;;4956148;28;20169;-66
2022/05/26 06:00:14;;;;;;;2.50;1.63;;;17.40;99.90;;;;;;4955738;28;20547;-66
2022/05/26 06:02:40;;;;;;;1.33;1.20;;;17.60;99.90;;;;;;4956181;28;20721;-66
2022/05/26 06:05:06;;;;;;;1.90;1.73;;;17.70;99.90;;;;;;4956101;28;20431;-66
2022/05/26 06:07:32;;;;;;;2.13;1.60;;;17.80;99.90;;;;;;4955975;28;20182;-66
2022/05/26 06:09:58;;;;;;;2.10;1.30;;;17.70;99.90;;;;;;4955404;28;21008;-66
2022/05/26 06:12:23;;;;;;;1.40;1.30;;;17.50;99.90;;;;;;4955939;28;20175;-66
2022/05/26 06:14:49;;;;;;;1.47;1.37;;;17.40;99.90;;;;;;4962881;28;20196;-66
2022/05/26 06:17:15;;;;;;;1.70;1.50;;;17.30;99.90;;;;;;4967671;28;20192;-66
2022/05/26 06:19:42;;;;;;;3.47;2.60;;;17.30;99.90;;;;;;4971188;28;20179;-66
2022/05/26 06:22:10;;;;;;;2.80;1.70;;;17.20;99.90;;;;;;4965435;28;20440;-66
2022/05/26 06:24:38;;;;;;;2.37;2.17;;;17.20;99.90;;;;;;4960005;28;20934;-66
2022/05/26 06:29:49;;;;;;;2.13;1.43;;;17.20;99.90;;;;;;4956670;28;20527;-66
2022/05/26 06:29:50;;;;;;;2.03;1.40;;;17.20;99.90;;;;;;4954973;28;20551;-66
2022/05/26 06:37:45;;;;;;;1.87;1.10;;;17.10;99.90;;;;;;4955749;29;20439;-66
2022/05/26 06:40:14;;;;;;;1.60;1.50;;;17.30;99.90;;;;;;4955114;28;20448;-66
2022/05/26 06:42:39;;;;;;;1.40;1.30;;;17.20;99.90;;;;;;4955450;28;20177;-66
2022/05/26 06:45:06;;;;;;;1.87;1.37;;;17.20;99.90;;;;;;4955340;28;20443;-66
2022/05/26 06:47:31;;;;;;;3.27;1.70;;;17.20;99.90;;;;;;4955279;28;20297;-66
2022/05/26 06:49:57;;;;;;;1.73;1.63;;;17.20;99.90;;;;;;4954723;28;20563;-66
2022/05/26 06:52:24;;;;;;;2.93;1.90;;;17.20;99.90;;;;;;4955225;28;20252;-66
2022/05/26 06:54:49;;;;;;;3.37;1.40;;;17.20;99.90;;;;;;4955361;28;20174;-66
2022/05/26 06:57:15;;;;;;;6.10;5.47;;;17.30;99.90;;;;;;4955166;28;20511;-66
2022/05/26 06:59:41;;;;;;;1.70;1.40;;;17.30;99.90;;;;;;4954704;28;20184;-66
2022/05/26 07:02:09;;;;;;;2.60;1.90;;;17.40;99.90;;;;;;4955094;28;20425;-66
2022/05/26 07:04:34;;;;;;;2.60;2.03;;;17.50;99.90;;;;;;4954957;28;20746;-66
2022/05/26 07:07:01;;;;;;;2.80;2.50;;;17.60;99.90;;;;;;4954927;28;20515;-66
2022/05/26 07:09:27;;;;;;;1.70;1.60;;;17.70;99.90;;;;;;4954538;28;20232;-66
2022/05/26 07:11:53;;;;;;;2.47;1.57;;;17.90;99.90;;;;;;4954752;28;20456;-66
2022/05/26 07:14:19;;;;;;;2.73;1.80;;;17.90;99.90;;;;;;4954866;28;20420;-66
2022/05/26 07:16:45;;;;;;;2.30;2.10;;;18.00;99.90;;;;;;4954685;28;20261;-66
2022/05/26 07:19:12;;;;;;;3.73;2.77;;;18.00;99.90;;;;;;4954421;28;21063;-66
2022/05/26 07:21:38;;;;;;;2.50;2.30;;;18.10;99.90;;;;;;4954843;28;20456;-66
2022/05/26 07:24:04;;;;;;;1.77;1.60;;;18.40;99.90;;;;;;4955007;28;20846;-66
2022/05/26 07:26:32;;;;;;;1.57;1.33;;;18.30;99.90;;;;;;4954620;29;20512;-66
2022/05/26 07:29:00;;;;;;;2.97;1.47;;;18.30;99.90;;;;;;4954354;28;20380;-66
2022/05/26 07:31:26;;;;;;;3.00;1.93;;;18.30;99.90;;;;;;4954069;28;20468;-66
2022/05/26 07:33:52;;;;;;;1.83;1.23;;;18.50;99.90;;;;;;4954710;28;20849;-66
2022/05/26 07:41:52;;;;;;;4.00;1.73;;;19.00;99.90;;;;;;4954533;29;20828;-66
2022/05/26 07:44:17;;;;;;;3.47;2.17;;;19.00;99.90;;;;;;4954414;28;20424;-66
2022/05/26 07:46:43;;;;;;;2.60;1.57;;;19.40;99.90;;;;;;4954197;28;20421;-67
2022/05/26 07:49:09;;;;;;;1.93;1.83;;;19.30;99.90;;;;;;4953955;28;20235;-66
2022/05/26 07:51:34;;;;;;;1.50;1.40;;;19.30;99.90;;;;;;4954111;28;20283;-66
2022/05/26 07:54:00;;;;;;;1.83;1.67;;;19.60;99.90;;;;;;4954230;28;20177;-67
2022/05/26 07:56:33;;;;;;;1.40;1.30;;;19.90;99.90;;;;;;4954088;28;20196;-66
2022/05/26 07:58:59;;;;;;;5.00;1.40;;;20.10;99.60;;;;;;4953881;28;20223;-66
2022/05/26 08:01:24;;;;;;;1.67;1.50;;;20.20;99.20;;;;;;4954084;28;21025;-66
2022/05/26 08:03:53;;;;;;;1.80;1.70;;;20.20;99.20;;;;;;4954077;28;20208;-67
2022/05/26 08:06:19;;;;;;;1.80;1.30;;;20.10;99.20;;;;;;4954063;28;20172;-66
2022/05/26 08:08:44;;;;;;;1.70;1.40;;;20.00;99.40;;;;;;4953714;28;20527;-66
2022/05/26 08:11:10;;;;;;;2.27;1.30;;;20.00;99.60;;;;;;4954013;28;20599;-66
2022/05/26 08:13:35;;;;;;;2.00;1.60;;;19.90;99.20;;;;;;4953960;28;20639;-66
2022/05/26 08:16:03;;;;;;;1.50;1.40;;;20.20;99.10;;;;;;4954001;28;20173;-66
2022/05/26 08:18:29;;;;;;;2.67;1.47;;;20.40;99.20;;;;;;4953631;28;20445;-66
2022/05/26 08:20:55;;;;;;;1.90;1.30;;;20.60;98.20;;;;;;4953824;28;20436;-66
2022/05/26 08:23:25;;;;;;;1.97;1.30;;;20.90;98.10;;;;;;4953867;28;20176;-66
2022/05/26 08:25:51;;;;;;;4.27;2.17;;;20.90;97.70;;;;;;4954222;28;20168;-67
2022/05/26 08:28:16;;;;;;;1.77;1.40;;;20.80;97.10;;;;;;4953525;28;20499;-66
2022/05/26 08:30:42;;;;;;;3.37;1.50;;;20.30;97.80;;;;;;4953698;28;20374;-67
2022/05/26 08:33:07;;;;;;;1.70;1.30;;;20.10;97.80;;;;;;4953725;28;20588;-66
2022/05/26 08:35:33;;;;;;;3.00;1.60;;;19.90;98.70;;;;;;4953856;28;20180;-66
2022/05/26 08:37:58;;;;;;;2.60;2.40;;;19.80;98.50;;;;;;4953720;28;20251;-67
2022/05/26 08:40:27;;;;;;;2.97;2.77;;;19.80;98.80;;;;;;4953407;28;20200;-67
2022/05/26 08:42:52;;;;;;;1.47;1.20;;;19.60;99.20;;;;;;4955278;28;20201;-66
2022/05/26 08:45:18;;;;;;;1.40;1.30;;;19.70;99.20;;;;;;4957567;28;20841;-66
2022/05/26 08:47:48;;;;;;;1.50;1.40;;;19.60;99.40;;;;;;4957530;28;20181;-66
2022/05/26 08:50:26;;;;;;;1.57;1.40;;;19.70;99.30;;;;;;4957001;28;20213;-66
2022/05/26 08:53:11;;;;;;;2.00;1.90;;;19.60;99.30;;;;;;4957360;28;20451;-67
2022/05/26 08:55:44;;;;;;;1.73;1.43;;;19.50;98.80;;;;;;4957419;28;20428;-66
2022/05/26 08:58:19;;;;;;;3.50;2.13;;;19.50;99.50;;;;;;4957196;28;20424;-66
2022/05/26 09:00:48;;;;;;;2.30;1.47;;;19.60;99.10;;;;;;4957223;28;20526;-67
2022/05/26 09:03:27;;;;;;;5.17;1.80;;;19.70;99.10;;;;;;4957069;28;20511;-66
2022/05/26 09:06:07;;;;;;;1.37;1.27;;;19.60;99.50;;;;;;4957200;28;20420;-67
2022/05/26 09:14:22;;;;;;;1.47;1.33;;;19.30;99.60;;;;;;4957315;28;20420;-67
2022/05/26 09:16:48;;;;;;;2.30;1.57;;;19.40;99.80;;;;;;4956909;28;20424;-67
2022/05/26 09:19:18;;;;;;;2.60;2.00;;;19.70;99.00;;;;;;4956622;29;20416;-66
2022/05/26 09:21:45;;;;;;;1.70;1.40;;;19.90;98.60;;;;;;4956710;28;20197;-67
2022/05/26 09:24:33;;;;;;;2.73;2.60;;;20.30;98.20;;;;;;4957078;28;20507;-67
2022/05/26 09:27:22;;;;;;;1.60;1.50;;;20.60;97.90;;;;;;4956873;28;20452;-66
2022/05/26 09:29:48;;;;;;;1.80;1.30;;;20.80;97.10;;;;;;4956130;28;20460;-67
2022/05/26 09:32:17;;;;;;;1.27;1.20;;;21.00;96.50;;;;;;4956695;28;20781;-67
2022/05/26 09:34:44;;;;;;;1.90;1.10;;;20.90;96.40;;;;;;4956713;28;20260;-67
2022/05/26 09:37:09;;;;;;;3.00;1.47;;;20.60;96.70;;;;;;4956687;28;20424;-66
2022/05/26 09:39:38;;;;;;;1.50;1.40;;;20.60;96.50;;;;;;4956215;28;20427;-66
2022/05/26 09:42:26;;;;;;;2.17;1.87;;;20.40;96.60;;;;;;4956530;28;20180;-67
2022/05/26 09:44:57;;;;;;;1.63;1.53;;;20.10;97.30;;;;;;4956423;28;20443;-66
2022/05/26 09:47:43;;;;;;;1.40;1.00;;;19.80;97.80;;;;;;4956476;28;20938;-66
2022/05/26 09:50:29;;;;;;;5.60;2.27;;;19.50;98.00;;;;;;4948847;29;20856;-67
2022/05/26 09:52:54;;;;;;;1.80;1.50;;;19.40;98.50;;;;;;4956313;28;20413;-66
2022/05/26 09:55:24;;;;;;;2.20;1.50;;;19.30;98.60;;;;;;4954991;28;20491;-66
2022/05/26 09:58:02;;;;;;;1.53;1.43;;;19.20;98.90;;;;;;4956413;28;20636;-66
2022/05/26 10:00:40;;;;;;;1.33;1.23;;;19.30;99.20;;;;;;4955687;28;20459;-67
2022/05/26 10:03:21;;;;;;;1.73;1.47;;;19.20;99.30;;;;;;4956142;28;20424;-67
2022/05/26 10:06:05;;;;;;;2.10;1.30;;;19.20;99.50;;;;;;4956031;28;20816;-67
2022/05/26 10:09:00;;;;;;;3.23;1.70;;;19.50;99.70;;;;;;4955691;28;20420;-67
2022/05/26 10:11:50;;;;;;;2.10;1.57;;;19.70;99.20;;;;;;4950925;28;20484;-67
2022/05/26 10:14:38;;;;;;;2.03;1.73;;;20.10;98.90;;;;;;4955835;28;20427;-67
2022/05/26 10:17:34;;;;;;;4.57;1.60;;;19.90;98.40;;;;;;4955498;28;20926;-67
2022/05/26 10:20:10;;;;;;;2.53;1.30;;;20.10;98.20;;;;;;4955333;28;20436;-67
2022/05/26 10:22:51;;;;;;;2.60;2.40;;;19.90;98.50;;;;;;4956408;28;20428;-67
2022/05/26 10:25:54;;;;;;;2.50;1.80;;;19.80;99.20;;;;;;4956178;28;20830;-66
2022/05/26 10:28:27;;;;;;;4.20;2.30;;;19.60;98.70;;;;;;4955614;28;20420;-68
2022/05/26 10:31:18;;;;;;;1.57;1.47;;;19.60;99.10;;;;;;4955467;28;21008;-65
2022/05/26 10:34:11;;;;;;;2.80;2.10;;;19.90;98.60;;;;;;4955681;28;20479;-67
2022/05/26 10:37:05;;;;;;;1.97;1.53;;;20.20;98.60;;;;;;4955966;28;20412;-66
2022/05/26 10:39:45;;;;;;;1.80;1.63;;;20.10;98.60;;;;;;4955719;28;20471;-67
2022/05/26 10:42:27;;;;;;;5.40;2.60;;;20.00;98.30;;;;;;4955872;28;20416;-68
2022/05/26 10:45:06;;;;;;;1.87;1.77;;;20.10;98.50;;;;;;4955444;28;20421;-67
2022/05/26 10:47:40;;;;;;;2.63;1.63;;;20.00;98.60;;;;;;4955843;28;20409;-67
2022/05/26 10:50:17;;;;;;;4.07;2.60;;;19.90;98.50;;;;;;4955733;28;20530;-67
2022/05/26 10:53:16;;;;;;;2.50;2.00;;;19.70;98.60;;;;;;4956520;28;20435;-66
2022/05/26 10:55:51;;;;;;;4.63;4.20;;;19.30;98.80;;;;;;4949484;28;20440;-66
2022/05/26 10:58:18;;;;;;;4.03;2.47;;;19.20;99.50;;;;;;4956921;28;20783;-67
2022/05/26 11:00:49;;;;;;;2.60;1.77;;;19.20;99.50;;;;;;4956394;28;20875;-67
2022/05/26 11:03:30;;;;;;;2.20;1.70;;;19.20;99.20;;;;;;4956379;28;20436;-67
2022/05/26 11:06:04;;;;;;;1.67;1.53;;;19.20;99.70;;;;;;4956598;28;20428;-66
2022/05/26 11:08:41;;;;;;;2.40;2.20;;;19.00;99.60;;;;;;4956640;28;20429;-67
2022/05/26 11:11:39;;;;;;;2.10;2.00;;;19.00;99.90;;;;;;4956067;28;20894;-67
2022/05/26 11:17:23;;;;;;;6.20;2.63;;;19.30;99.90;;;;;;4955824;29;20424;-67
2022/05/26 11:20:07;;;;;;;1.57;1.47;;;19.60;99.90;;;;;;4954975;28;20914;-67
2022/05/26 11:22:33;;;;;;;1.73;1.63;;;19.60;99.50;;;;;;4955160;28;20483;-66
2022/05/26 11:24:59;;;;;;;1.90;1.80;;;19.60;99.80;;;;;;4954915;28;20484;-66
2022/05/26 11:27:27;;;;;;;1.57;1.47;;;19.50;99.50;;;;;;4955272;28;20507;-67
2022/05/26 11:29:58;;;;;;;1.50;1.40;;;19.60;99.40;;;;;;4954872;28;20472;-67
2022/05/26 11:38:28;;;;;;;5.50;3.30;;;19.60;99.70;;;;;;4955038;29;20444;-67
2022/05/26 11:41:05;;;;;;;2.40;1.77;;;19.70;99.50;;;;;;4955080;28;20436;-67
2022/05/26 11:43:42;;;;;;;1.80;1.70;;;19.80;99.30;;;;;;4954661;28;20420;-68
2022/05/26 11:46:09;;;;;;;2.83;1.80;;;20.00;98.90;;;;;;4954374;28;20424;-66
2022/05/26 11:48:45;;;;;;;3.77;1.60;;;20.50;99.10;;;;;;4954061;28;20460;-67
2022/05/26 11:51:35;;;;;;;1.30;1.20;;;20.90;97.50;;;;;;4954166;28;20997;-67
2022/05/26 11:54:01;;;;;;;3.07;1.60;;;20.80;97.30;;;;;;4954677;28;20431;-67
2022/05/26 11:56:28;;;;;;;2.60;2.40;;;20.60;98.20;;;;;;4954209;28;20500;-66
2022/05/26 11:59:21;;;;;;;4.90;1.60;;;20.80;97.80;;;;;;4954118;28;20256;-66
2022/05/26 12:01:59;;;;;;;1.70;1.60;;;20.70;97.50;;;;;;4954283;28;20443;-67
2022/05/26 12:04:33;;;;;;;7.87;2.27;;;20.60;98.60;;;;;;4954305;28;20412;-67
2022/05/26 12:07:04;;;;;;;3.27;2.13;;;20.50;98.10;;;;;;4954117;28;20427;-68
2022/05/26 12:09:48;;;;;;;3.60;2.90;;;20.70;97.60;;;;;;4954152;28;20417;-67
2022/05/26 12:12:16;;;;;;;1.83;1.57;;;20.80;97.30;;;;;;4954268;28;20432;-66
2022/05/26 12:14:52;;;;;;;2.00;1.83;;;20.80;97.40;;;;;;4954992;28;20479;-67
2022/05/26 12:17:38;;;;;;;1.93;1.83;;;20.40;97.80;;;;;;4954186;28;20791;-65
2022/05/26 12:20:09;;;;;;;3.10;2.27;;;20.10;98.20;;;;;;4954104;28;20816;-67
2022/05/26 12:22:51;;;;;;;2.23;2.07;;;20.20;98.50;;;;;;4954437;28;20524;-67
2022/05/26 12:25:30;;;;;;;1.80;1.70;;;20.00;98.70;;;;;;4954201;28;20993;-67
2022/05/26 12:27:59;;;;;;;4.90;1.80;;;19.70;99.40;;;;;;4954396;28;20428;-67
2022/05/26 12:30:45;;;;;;;2.70;2.23;;;19.80;99.70;;;;;;4953736;28;20468;-67
2022/05/26 12:33:18;;;;;;;2.53;2.27;;;19.80;99.90;;;;;;4953951;28;20424;-67
2022/05/26 12:36:22;;;;;;;1.80;1.70;;;20.20;99.90;;;;;;4953366;28;20431;-66
2022/05/26 12:39:18;;;;;;;1.70;1.60;;;20.50;99.20;;;;;;4953480;28;20427;-67
2022/05/26 12:42:12;;;;;;;2.23;2.03;;;20.60;99.30;;;;;;4953584;28;20432;-66
2022/05/26 12:44:59;;;;;;;3.63;1.60;;;20.90;98.40;;;;;;4953765;28;21058;-67
2022/05/26 12:47:34;;;;;;;1.77;1.67;;;21.40;97.80;;;;;;4954350;28;20440;-67
2022/05/26 12:50:16;;;;;;;3.03;1.47;;;22.20;97.10;;;;;;4955200;28;21032;-68
2022/05/26 12:52:46;;;;;;;1.60;1.50;;;22.90;94.60;;;;;;4956218;28;20436;-67
2022/05/26 12:55:41;;;;;;;2.70;1.90;;;23.40;94.10;;;;;;4955911;28;20548;-66
2022/05/26 12:58:18;;;;;;;3.40;2.07;;;23.40;93.60;;;;;;4954524;29;20443;-67
2022/05/26 13:00:56;;;;;;;1.53;1.43;;;23.00;94.40;;;;;;4954731;28;20474;-67
2022/05/26 13:03:31;;;;;;;2.03;1.40;;;22.70;94.20;;;;;;4955572;28;20412;-67
2022/05/26 13:06:10;;;;;;;2.40;1.90;;;23.10;94.20;;;;;;4956184;28;20804;-66
2022/05/26 13:08:55;;;;;;;2.87;1.10;;;23.70;93.20;;;;;;4955169;28;20898;-67
2022/05/26 13:11:26;;;;;;;1.73;1.63;;;23.40;93.00;;;;;;4954826;28;20483;-66
2022/05/26 13:13:56;;;;;;;4.23;3.00;;;23.00;93.00;;;;;;4954234;28;20931;-67
2022/05/26 13:16:39;;;;;;;2.20;1.57;;;22.40;94.50;;;;;;4954448;28;20421;-67
2022/05/26 13:19:14;;;;;;;1.43;1.33;;;22.10;94.30;;;;;;4953552;28;20435;-66
2022/05/26 13:21:46;;;;;;;2.20;1.53;;;22.30;94.70;;;;;;4953924;28;20446;-66
2022/05/26 13:24:23;;;;;;;2.10;1.97;;;22.10;95.30;;;;;;4954380;28;20487;-67
2022/05/26 13:26:55;;;;;;;1.67;1.57;;;22.10;94.80;;;;;;4953628;28;20439;-67
2022/05/26 13:29:22;;;;;;;1.53;1.43;;;21.80;94.30;;;;;;4955718;28;20509;-67
2022/05/26 13:34:34;;;;;;;2.47;2.27;;;21.00;95.30;;;;;;4957264;29;20434;-67
2022/05/26 13:37:23;;;;;;;2.50;2.27;;;20.80;96.30;;;;;;4956826;28;20926;-67
2022/05/26 13:40:08;;;;;;;2.30;2.10;;;20.80;96.60;;;;;;4956225;28;20438;-67
2022/05/26 13:42:36;;;;;;;2.83;1.70;;;20.90;96.70;;;;;;4956630;28;20436;-67
2022/05/26 13:45:04;;;;;;;1.97;1.80;;;21.00;97.30;;;;;;4956687;28;20425;-67
2022/05/26 13:47:29;;;;;;;4.47;1.70;;;21.10;98.10;;;;;;4956714;28;20937;-67
2022/05/26 13:50:09;;;;;;;3.73;1.70;;;21.20;97.90;;;;;;4956184;28;20472;-67
2022/05/26 13:52:38;;;;;;;4.13;1.90;;;21.50;97.60;;;;;;4956378;28;20547;-67